createdAt,value
2018-06-06T00:07:51.162Z,3.8
2018-06-06T00:24:34.210Z,3.8
2018-06-06T00:41:17.005Z,3.8
2018-06-06T00:57:59.785Z,3.8
2018-06-06T01:14:42.274Z,3.8
2018-06-06T01:31:24.653Z,3.8
2018-06-06T01:48:06.982Z,3.7
2018-06-06T02:04:49.397Z,3.7
2018-06-06T02:21:31.620Z,3.7
2018-06-06T02:38:13.657Z,3.7
2018-06-06T02:54:55.164Z,3.7
2018-06-06T03:11:36.583Z,3.7
2018-06-06T03:28:18.057Z,3.7
2018-06-06T03:44:59.596Z,3.7
2018-06-06T04:01:40.955Z,3.7
2018-06-06T04:18:23.003Z,3.7
2018-06-06T04:35:05.353Z,3.8
2018-06-06T04:51:47.663Z,3.8
2018-06-06T05:08:30.352Z,3.8
2018-06-06T05:21:52.936Z,3.9
2018-06-06T05:38:36.737Z,3.9
2018-06-06T05:55:20.788Z,4.0
2018-06-06T06:08:44.568Z,4.0
2018-06-06T06:18:47.689Z,4.1
2018-06-06T06:28:51.834Z,4.1
2018-06-06T06:38:54.832Z,4.1
2018-06-06T06:55:42.147Z,4.0
2018-06-06T07:05:45.859Z,4.0
2018-06-06T07:15:50.524Z,4.0
2018-06-06T07:22:33.674Z,4.0
2018-06-06T07:32:38.698Z,4.0
2018-06-06T07:42:43.784Z,4.0
2018-06-06T07:56:11.036Z,4.0
2018-06-06T08:13:00.495Z,4.0
2018-06-06T08:19:44.438Z,4.1
2018-06-06T08:36:34.135Z,4.1
2018-06-06T08:53:24.213Z,4.1
2018-06-06T09:00:08.382Z,4.1
2018-06-06T09:06:53.082Z,4.1
2018-06-06T09:13:37.188Z,4.1
2018-06-06T09:16:59.370Z,4.1
2018-06-06T09:30:28.160Z,4.1
2018-06-06T09:40:35.047Z,4.1
2018-06-06T09:57:26.741Z,4.1
2018-06-06T10:14:18.766Z,4.1
2018-06-06T10:31:11.250Z,4.1
2018-06-06T10:41:19.018Z,4.2
2018-06-06T10:58:14.134Z,4.2
2018-06-06T11:15:06.088Z,4.2
2018-06-06T11:28:36.433Z,4.3
2018-06-06T11:30:17.867Z,4.3
2018-06-06T11:45:30.136Z,4.2
2018-06-06T11:59:00.878Z,4.2
2018-06-06T12:15:54.569Z,4.2
2018-06-06T12:19:16.898Z,4.3
2018-06-06T12:36:10.761Z,4.2
2018-06-06T12:53:05.737Z,4.3
2018-06-06T13:06:36.981Z,4.3
2018-06-06T13:23:31.360Z,4.3
2018-06-06T13:40:26.354Z,4.3
2018-06-06T13:57:21.447Z,4.3
2018-06-06T14:14:16.605Z,4.3
2018-06-06T14:26:07.364Z,4.4
2018-06-06T14:34:35.027Z,4.3
2018-06-06T14:36:16.557Z,4.3
2018-06-06T14:53:12.020Z,4.4
2018-06-06T15:10:07.873Z,4.4
2018-06-06T15:27:03.544Z,4.4
2018-06-06T15:43:59.541Z,4.5
2018-06-06T16:00:55.681Z,4.5
2018-06-06T16:07:42.337Z,4.6
2018-06-06T16:11:05.725Z,4.6
2018-06-06T16:26:20.998Z,4.6
2018-06-06T16:29:44.576Z,4.5
2018-06-06T16:38:14.046Z,4.4
2018-06-06T16:55:12.785Z,4.3
2018-06-06T17:03:42.217Z,4.2
2018-06-06T17:07:06.002Z,4.2
2018-06-06T17:10:29.569Z,4.3
2018-06-06T17:18:58.628Z,4.3
2018-06-06T17:22:22.262Z,4.3
2018-06-06T17:35:56.646Z,4.3
2018-06-06T17:44:26.284Z,4.4
2018-06-06T17:49:30.595Z,4.6
2018-06-06T17:56:16.998Z,4.5
2018-06-06T18:04:44.555Z,4.3
2018-06-06T18:11:30.283Z,4.1
2018-06-06T18:21:38.066Z,4.1
2018-06-06T18:38:30.571Z,4.1
2018-06-06T18:52:00.196Z,4.0
2018-06-06T19:08:51.813Z,4.0
2018-06-06T19:25:42.943Z,4.0
2018-06-06T19:39:11.611Z,4.0
2018-06-06T19:56:01.838Z,4.0
2018-06-06T20:12:51.736Z,4.0
2018-06-06T20:26:19.536Z,4.0
2018-06-06T20:43:08.821Z,4.0
2018-06-06T20:59:57.808Z,3.9
2018-06-06T21:16:46.498Z,3.9
2018-06-06T21:33:34.934Z,3.9
2018-06-06T21:50:23.097Z,3.9
2018-06-06T22:07:11.118Z,3.9
2018-06-06T22:23:58.885Z,3.9
2018-06-06T22:40:46.381Z,3.9
2018-06-06T22:57:33.622Z,3.9
2018-06-06T23:14:20.668Z,3.9
2018-06-06T23:31:07.580Z,3.8
2018-06-06T23:47:54.496Z,3.8
